sensor_id;sensor_type;location;lat;lon;timestamp;temperature;humidity
28087;DHT22;15392;48.912;8.380;2023-02-04T00:02:00;12.90;58.50
28087;DHT22;15392;48.912;8.380;2023-02-04T00:04:26;12.90;58.50
28087;DHT22;15392;48.912;8.380;2023-02-04T00:06:52;12.90;58.60
28087;DHT22;15392;48.912;8.380;2023-02-04T00:09:17;12.90;58.70
28087;DHT22;15392;48.912;8.380;2023-02-04T00:11:43;12.90;58.40
28087;DHT22;15392;48.912;8.380;2023-02-04T00:14:10;12.90;58.40
28087;DHT22;15392;48.912;8.380;2023-02-04T00:16:36;12.90;58.70
28087;DHT22;15392;48.912;8.380;2023-02-04T00:19:02;12.90;58.40
28087;DHT22;15392;48.912;8.380;2023-02-04T00:21:27;12.90;58.60
28087;DHT22;15392;48.912;8.380;2023-02-04T00:23:53;12.90;58.60
28087;DHT22;15392;48.912;8.380;2023-02-04T00:26:20;12.90;58.50
28087;DHT22;15392;48.912;8.380;2023-02-04T00:28:45;12.90;58.40
28087;DHT22;15392;48.912;8.380;2023-02-04T00:31:11;12.90;58.60
28087;DHT22;15392;48.912;8.380;2023-02-04T00:33:37;12.90;58.80
28087;DHT22;15392;48.912;8.380;2023-02-04T00:36:03;12.90;58.80
28087;DHT22;15392;48.912;8.380;2023-02-04T00:38:29;12.90;58.90
28087;DHT22;15392;48.912;8.380;2023-02-04T00:40:55;12.90;58.80
28087;DHT22;15392;48.912;8.380;2023-02-04T00:43:20;12.90;59.00
28087;DHT22;15392;48.912;8.380;2023-02-04T00:45:46;12.80;58.80
28087;DHT22;15392;48.912;8.380;2023-02-04T00:48:12;12.90;58.70
28087;DHT22;15392;48.912;8.380;2023-02-04T00:50:37;12.90;59.00
28087;DHT22;15392;48.912;8.380;2023-02-04T00:53:05;12.90;59.10
28087;DHT22;15392;48.912;8.380;2023-02-04T00:55:31;12.80;58.90
28087;DHT22;15392;48.912;8.380;2023-02-04T00:57:57;12.80;58.70
28087;DHT22;15392;48.912;8.380;2023-02-04T01:00:23;12.80;58.50
28087;DHT22;15392;48.912;8.380;2023-02-04T01:02:49;12.80;58.80
28087;DHT22;15392;48.912;8.380;2023-02-04T01:05:14;12.80;59.00
28087;DHT22;15392;48.912;8.380;2023-02-04T01:07:40;12.80;58.70
28087;DHT22;15392;48.912;8.380;2023-02-04T01:10:06;12.80;58.90
28087;DHT22;15392;48.912;8.380;2023-02-04T01:12:32;12.80;59.00
28087;DHT22;15392;48.912;8.380;2023-02-04T01:14:58;12.80;58.80
28087;DHT22;15392;48.912;8.380;2023-02-04T01:17:24;12.80;59.20
28087;DHT22;15392;48.912;8.380;2023-02-04T01:19:49;12.80;59.10
28087;DHT22;15392;48.912;8.380;2023-02-04T01:22:15;12.80;59.10
28087;DHT22;15392;48.912;8.380;2023-02-04T01:24:41;12.80;59.00
28087;DHT22;15392;48.912;8.380;2023-02-04T01:27:06;12.80;58.90
28087;DHT22;15392;48.912;8.380;2023-02-04T01:29:32;12.80;58.80
28087;DHT22;15392;48.912;8.380;2023-02-04T01:31:58;12.70;58.90
28087;DHT22;15392;48.912;8.380;2023-02-04T01:34:23;12.80;59.20
28087;DHT22;15392;48.912;8.380;2023-02-04T01:36:50;12.80;58.90
28087;DHT22;15392;48.912;8.380;2023-02-04T01:39:16;12.70;59.30
28087;DHT22;15392;48.912;8.380;2023-02-04T01:41:42;12.80;59.00
28087;DHT22;15392;48.912;8.380;2023-02-04T01:44:08;12.70;59.10
28087;DHT22;15392;48.912;8.380;2023-02-04T01:46:34;12.80;59.00
28087;DHT22;15392;48.912;8.380;2023-02-04T01:49:03;12.70;59.10
28087;DHT22;15392;48.912;8.380;2023-02-04T01:51:29;12.70;59.30
28087;DHT22;15392;48.912;8.380;2023-02-04T01:53:57;12.70;59.50
28087;DHT22;15392;48.912;8.380;2023-02-04T01:56:25;12.70;59.20
28087;DHT22;15392;48.912;8.380;2023-02-04T01:58:53;12.70;59.30
28087;DHT22;15392;48.912;8.380;2023-02-04T02:01:41;12.70;59.10
28087;DHT22;15392;48.912;8.380;2023-02-04T02:04:13;12.70;59.20
28087;DHT22;15392;48.912;8.380;2023-02-04T02:06:44;12.70;59.40
28087;DHT22;15392;48.912;8.380;2023-02-04T02:09:12;12.70;59.60
28087;DHT22;15392;48.912;8.380;2023-02-04T02:11:38;12.70;59.40
28087;DHT22;15392;48.912;8.380;2023-02-04T02:14:04;12.70;59.60
28087;DHT22;15392;48.912;8.380;2023-02-04T02:16:29;12.70;59.50
28087;DHT22;15392;48.912;8.380;2023-02-04T02:18:55;12.60;59.30
28087;DHT22;15392;48.912;8.380;2023-02-04T02:21:41;12.70;59.30
28087;DHT22;15392;48.912;8.380;2023-02-04T02:24:29;12.70;59.30
28087;DHT22;15392;48.912;8.380;2023-02-04T02:27:00;12.70;59.60
28087;DHT22;15392;48.912;8.380;2023-02-04T02:29:33;12.70;59.50
28087;DHT22;15392;48.912;8.380;2023-02-04T02:31:59;12.70;59.60
28087;DHT22;15392;48.912;8.380;2023-02-04T02:34:26;12.70;59.60
28087;DHT22;15392;48.912;8.380;2023-02-04T02:36:53;12.70;59.40
28087;DHT22;15392;48.912;8.380;2023-02-04T02:39:20;12.70;59.30
28087;DHT22;15392;48.912;8.380;2023-02-04T02:41:46;12.70;59.20
28087;DHT22;15392;48.912;8.380;2023-02-04T02:44:13;12.70;59.30
28087;DHT22;15392;48.912;8.380;2023-02-04T02:46:39;12.70;59.30
28087;DHT22;15392;48.912;8.380;2023-02-04T02:49:05;12.80;59.30
28087;DHT22;15392;48.912;8.380;2023-02-04T02:51:31;12.80;59.10
28087;DHT22;15392;48.912;8.380;2023-02-04T02:53:57;12.70;59.10
28087;DHT22;15392;48.912;8.380;2023-02-04T02:56:23;12.80;59.10
28087;DHT22;15392;48.912;8.380;2023-02-04T02:58:49;12.80;58.90
28087;DHT22;15392;48.912;8.380;2023-02-04T03:01:14;12.80;58.90
28087;DHT22;15392;48.912;8.380;2023-02-04T03:03:44;12.80;58.90
28087;DHT22;15392;48.912;8.380;2023-02-04T03:06:20;12.80;59.50
28087;DHT22;15392;48.912;8.380;2023-02-04T03:08:51;12.80;59.50
28087;DHT22;15392;48.912;8.380;2023-02-04T03:11:19;12.80;59.30
28087;DHT22;15392;48.912;8.380;2023-02-04T03:13:45;12.80;59.50
28087;DHT22;15392;48.912;8.380;2023-02-04T03:16:11;12.80;59.50
28087;DHT22;15392;48.912;8.380;2023-02-04T03:18:38;12.80;59.60
28087;DHT22;15392;48.912;8.380;2023-02-04T03:21:04;12.80;59.70
28087;DHT22;15392;48.912;8.380;2023-02-04T03:23:32;12.80;59.80
28087;DHT22;15392;48.912;8.380;2023-02-04T03:26:00;12.80;59.90
28087;DHT22;15392;48.912;8.380;2023-02-04T03:28:26;12.80;59.90
28087;DHT22;15392;48.912;8.380;2023-02-04T03:30:52;12.90;59.90
28087;DHT22;15392;48.912;8.380;2023-02-04T03:33:26;12.90;59.90
28087;DHT22;15392;48.912;8.380;2023-02-04T03:35:56;12.80;59.80
28087;DHT22;15392;48.912;8.380;2023-02-04T03:38:22;12.90;59.80
28087;DHT22;15392;48.912;8.380;2023-02-04T03:40:48;12.90;59.80
28087;DHT22;15392;48.912;8.380;2023-02-04T03:43:14;12.90;59.70
28087;DHT22;15392;48.912;8.380;2023-02-04T03:45:40;12.90;59.70
28087;DHT22;15392;48.912;8.380;2023-02-04T03:48:05;12.90;59.60
28087;DHT22;15392;48.912;8.380;2023-02-04T03:50:32;12.90;59.60
28087;DHT22;15392;48.912;8.380;2023-02-04T03:52:58;12.90;59.50
28087;DHT22;15392;48.912;8.380;2023-02-04T03:55:24;12.90;59.40
28087;DHT22;15392;48.912;8.380;2023-02-04T03:57:51;12.90;59.40
28087;DHT22;15392;48.912;8.380;2023-02-04T04:00:18;12.90;59.30
28087;DHT22;15392;48.912;8.380;2023-02-04T04:02:44;12.90;59.30
28087;DHT22;15392;48.912;8.380;2023-02-04T04:05:10;12.90;59.30
28087;DHT22;15392;48.912;8.380;2023-02-04T04:07:36;12.90;59.30
28087;DHT22;15392;48.912;8.380;2023-02-04T04:10:02;12.90;59.30
28087;DHT22;15392;48.912;8.380;2023-02-04T04:12:28;12.90;59.30
28087;DHT22;15392;48.912;8.380;2023-02-04T04:14:54;13.00;59.30
28087;DHT22;15392;48.912;8.380;2023-02-04T04:17:19;13.00;59.30
28087;DHT22;15392;48.912;8.380;2023-02-04T04:19:45;13.00;59.40
28087;DHT22;15392;48.912;8.380;2023-02-04T04:22:11;13.00;59.30
28087;DHT22;15392;48.912;8.380;2023-02-04T04:24:37;13.00;59.30
28087;DHT22;15392;48.912;8.380;2023-02-04T04:27:03;13.00;59.30
28087;DHT22;15392;48.912;8.380;2023-02-04T04:29:28;13.00;59.30
28087;DHT22;15392;48.912;8.380;2023-02-04T04:31:54;13.00;59.30
28087;DHT22;15392;48.912;8.380;2023-02-04T04:34:20;13.00;59.30
28087;DHT22;15392;48.912;8.380;2023-02-04T04:36:45;13.00;59.40
28087;DHT22;15392;48.912;8.380;2023-02-04T04:39:11;13.00;59.30
28087;DHT22;15392;48.912;8.380;2023-02-04T04:41:37;12.90;59.30
28087;DHT22;15392;48.912;8.380;2023-02-04T04:44:03;13.00;59.30
28087;DHT22;15392;48.912;8.380;2023-02-04T04:46:29;13.00;59.30
28087;DHT22;15392;48.912;8.380;2023-02-04T04:48:54;12.90;59.10
28087;DHT22;15392;48.912;8.380;2023-02-04T04:51:20;12.90;59.10
28087;DHT22;15392;48.912;8.380;2023-02-04T04:53:46;13.00;59.10
28087;DHT22;15392;48.912;8.380;2023-02-04T04:56:12;12.90;59.00
28087;DHT22;15392;48.912;8.380;2023-02-04T04:58:37;12.90;58.90
28087;DHT22;15392;48.912;8.380;2023-02-04T05:01:03;12.90;58.80
28087;DHT22;15392;48.912;8.380;2023-02-04T05:03:29;12.90;58.70
28087;DHT22;15392;48.912;8.380;2023-02-04T05:05:54;12.90;58.70
28087;DHT22;15392;48.912;8.380;2023-02-04T05:08:20;12.90;58.70
28087;DHT22;15392;48.912;8.380;2023-02-04T05:10:46;12.90;58.60
28087;DHT22;15392;48.912;8.380;2023-02-04T05:13:12;12.80;58.50
28087;DHT22;15392;48.912;8.380;2023-02-04T05:15:37;12.80;58.50
28087;DHT22;15392;48.912;8.380;2023-02-04T05:18:03;12.80;58.50
28087;DHT22;15392;48.912;8.380;2023-02-04T05:20:29;12.70;58.40
28087;DHT22;15392;48.912;8.380;2023-02-04T05:22:55;12.70;58.40
28087;DHT22;15392;48.912;8.380;2023-02-04T05:25:21;12.70;58.50
28087;DHT22;15392;48.912;8.380;2023-02-04T05:27:48;12.70;58.40
28087;DHT22;15392;48.912;8.380;2023-02-04T05:30:14;12.60;58.30
28087;DHT22;15392;48.912;8.380;2023-02-04T05:32:40;12.60;58.20
28087;DHT22;15392;48.912;8.380;2023-02-04T05:35:06;12.60;58.30
28087;DHT22;15392;48.912;8.380;2023-02-04T05:37:32;12.60;58.30
28087;DHT22;15392;48.912;8.380;2023-02-04T05:39:58;12.50;58.80
28087;DHT22;15392;48.912;8.380;2023-02-04T05:42:24;12.50;58.20
28087;DHT22;15392;48.912;8.380;2023-02-04T05:44:50;12.50;58.30
28087;DHT22;15392;48.912;8.380;2023-02-04T05:47:15;12.50;58.30
28087;DHT22;15392;48.912;8.380;2023-02-04T05:49:41;12.40;58.30
28087;DHT22;15392;48.912;8.380;2023-02-04T05:52:07;12.50;58.30
28087;DHT22;15392;48.912;8.380;2023-02-04T05:54:33;12.40;58.30
28087;DHT22;15392;48.912;8.380;2023-02-04T05:56:58;12.40;58.30
28087;DHT22;15392;48.912;8.380;2023-02-04T05:59:24;12.30;58.40
28087;DHT22;15392;48.912;8.380;2023-02-04T06:01:50;12.40;58.40
28087;DHT22;15392;48.912;8.380;2023-02-04T06:04:16;12.30;58.40
28087;DHT22;15392;48.912;8.380;2023-02-04T06:06:42;12.30;58.60
28087;DHT22;15392;48.912;8.380;2023-02-04T06:09:08;12.30;58.40
28087;DHT22;15392;48.912;8.380;2023-02-04T06:11:34;12.20;58.40
28087;DHT22;15392;48.912;8.380;2023-02-04T06:14:01;12.20;58.50
28087;DHT22;15392;48.912;8.380;2023-02-04T06:16:26;12.20;58.50
28087;DHT22;15392;48.912;8.380;2023-02-04T06:18:52;12.20;58.50
28087;DHT22;15392;48.912;8.380;2023-02-04T06:21:18;12.20;58.50
28087;DHT22;15392;48.912;8.380;2023-02-04T06:23:44;12.20;58.50
28087;DHT22;15392;48.912;8.380;2023-02-04T06:26:10;12.20;58.40
28087;DHT22;15392;48.912;8.380;2023-02-04T06:28:36;12.20;58.40
28087;DHT22;15392;48.912;8.380;2023-02-04T06:31:02;12.20;58.40
28087;DHT22;15392;48.912;8.380;2023-02-04T06:33:28;12.20;58.50
28087;DHT22;15392;48.912;8.380;2023-02-04T06:35:53;12.20;58.50
28087;DHT22;15392;48.912;8.380;2023-02-04T06:38:19;12.10;58.50
28087;DHT22;15392;48.912;8.380;2023-02-04T06:40:45;12.10;58.60
28087;DHT22;15392;48.912;8.380;2023-02-04T06:43:14;12.10;58.60
28087;DHT22;15392;48.912;8.380;2023-02-04T06:45:41;12.10;58.50
28087;DHT22;15392;48.912;8.380;2023-02-04T06:48:06;12.10;58.40
28087;DHT22;15392;48.912;8.380;2023-02-04T06:50:32;12.10;58.40
28087;DHT22;15392;48.912;8.380;2023-02-04T06:52:58;12.10;58.40
28087;DHT22;15392;48.912;8.380;2023-02-04T06:55:23;12.10;58.40
28087;DHT22;15392;48.912;8.380;2023-02-04T06:57:49;12.10;58.40
28087;DHT22;15392;48.912;8.380;2023-02-04T07:00:15;12.10;58.50
28087;DHT22;15392;48.912;8.380;2023-02-04T07:02:41;12.10;58.50
28087;DHT22;15392;48.912;8.380;2023-02-04T07:05:07;12.10;58.50
28087;DHT22;15392;48.912;8.380;2023-02-04T07:07:33;12.10;58.60
28087;DHT22;15392;48.912;8.380;2023-02-04T07:09:59;12.10;58.60
28087;DHT22;15392;48.912;8.380;2023-02-04T07:12:25;12.00;58.60
28087;DHT22;15392;48.912;8.380;2023-02-04T07:14:51;12.00;58.60
28087;DHT22;15392;48.912;8.380;2023-02-04T07:17:17;12.00;58.60
28087;DHT22;15392;48.912;8.380;2023-02-04T07:19:43;12.00;58.60
28087;DHT22;15392;48.912;8.380;2023-02-04T07:22:09;12.00;58.60
28087;DHT22;15392;48.912;8.380;2023-02-04T07:24:35;12.00;58.60
28087;DHT22;15392;48.912;8.380;2023-02-04T07:27:00;12.00;58.60
28087;DHT22;15392;48.912;8.380;2023-02-04T07:29:26;12.00;58.70
28087;DHT22;15392;48.912;8.380;2023-02-04T07:31:52;12.00;58.70
28087;DHT22;15392;48.912;8.380;2023-02-04T07:34:18;12.00;58.70
28087;DHT22;15392;48.912;8.380;2023-02-04T07:36:44;12.00;58.70
28087;DHT22;15392;48.912;8.380;2023-02-04T07:39:10;12.00;58.70
28087;DHT22;15392;48.912;8.380;2023-02-04T07:41:36;12.00;58.60
28087;DHT22;15392;48.912;8.380;2023-02-04T07:44:02;12.00;58.60
28087;DHT22;15392;48.912;8.380;2023-02-04T07:46:29;12.00;58.70
28087;DHT22;15392;48.912;8.380;2023-02-04T07:48:54;12.00;58.70
28087;DHT22;15392;48.912;8.380;2023-02-04T07:51:20;12.00;58.60
28087;DHT22;15392;48.912;8.380;2023-02-04T07:53:46;12.00;58.60
28087;DHT22;15392;48.912;8.380;2023-02-04T07:56:12;12.00;58.50
28087;DHT22;15392;48.912;8.380;2023-02-04T07:58:38;12.00;58.40
28087;DHT22;15392;48.912;8.380;2023-02-04T08:01:03;12.00;59.00
28087;DHT22;15392;48.912;8.380;2023-02-04T08:03:29;12.00;58.30
28087;DHT22;15392;48.912;8.380;2023-02-04T08:05:55;12.00;58.40
28087;DHT22;15392;48.912;8.380;2023-02-04T08:08:21;12.00;58.40
28087;DHT22;15392;48.912;8.380;2023-02-04T08:10:46;12.00;58.40
28087;DHT22;15392;48.912;8.380;2023-02-04T08:13:12;12.00;58.50
28087;DHT22;15392;48.912;8.380;2023-02-04T08:15:38;12.00;58.40
28087;DHT22;15392;48.912;8.380;2023-02-04T08:18:04;12.10;58.40
28087;DHT22;15392;48.912;8.380;2023-02-04T08:20:30;12.10;58.50
28087;DHT22;15392;48.912;8.380;2023-02-04T08:22:56;12.10;58.50
28087;DHT22;15392;48.912;8.380;2023-02-04T08:25:22;12.10;58.60
28087;DHT22;15392;48.912;8.380;2023-02-04T08:27:48;12.20;58.70
28087;DHT22;15392;48.912;8.380;2023-02-04T08:30:14;12.20;58.80
28087;DHT22;15392;48.912;8.380;2023-02-04T08:32:40;12.20;58.90
28087;DHT22;15392;48.912;8.380;2023-02-04T08:35:06;12.30;58.80
28087;DHT22;15392;48.912;8.380;2023-02-04T08:37:32;12.40;58.70
28087;DHT22;15392;48.912;8.380;2023-02-04T08:39:59;12.40;58.60
28087;DHT22;15392;48.912;8.380;2023-02-04T08:42:25;12.50;58.70
28087;DHT22;15392;48.912;8.380;2023-02-04T08:44:50;12.60;58.70
28087;DHT22;15392;48.912;8.380;2023-02-04T08:47:16;12.70;58.50
28087;DHT22;15392;48.912;8.380;2023-02-04T08:49:42;12.70;58.40
28087;DHT22;15392;48.912;8.380;2023-02-04T08:52:07;12.80;58.40
28087;DHT22;15392;48.912;8.380;2023-02-04T08:54:34;12.80;58.30
28087;DHT22;15392;48.912;8.380;2023-02-04T08:57:00;12.90;58.30
28087;DHT22;15392;48.912;8.380;2023-02-04T08:59:27;13.00;58.20
28087;DHT22;15392;48.912;8.380;2023-02-04T09:01:53;13.10;58.10
28087;DHT22;15392;48.912;8.380;2023-02-04T09:04:20;13.10;58.10
28087;DHT22;15392;48.912;8.380;2023-02-04T09:06:47;13.20;58.00
28087;DHT22;15392;48.912;8.380;2023-02-04T09:09:14;13.30;57.90
28087;DHT22;15392;48.912;8.380;2023-02-04T09:11:40;13.40;58.40
28087;DHT22;15392;48.912;8.380;2023-02-04T09:14:06;13.50;58.20
28087;DHT22;15392;48.912;8.380;2023-02-04T09:16:32;13.70;58.20
28087;DHT22;15392;48.912;8.380;2023-02-04T09:18:58;13.90;58.30
28087;DHT22;15392;48.912;8.380;2023-02-04T09:21:25;14.10;58.60
28087;DHT22;15392;48.912;8.380;2023-02-04T09:23:50;14.40;58.80
28087;DHT22;15392;48.912;8.380;2023-02-04T09:26:16;14.70;58.80
28087;DHT22;15392;48.912;8.380;2023-02-04T09:28:42;15.10;58.50
28087;DHT22;15392;48.912;8.380;2023-02-04T09:31:08;15.40;57.80
28087;DHT22;15392;48.912;8.380;2023-02-04T09:33:35;15.60;56.90
28087;DHT22;15392;48.912;8.380;2023-02-04T09:36:01;15.70;56.00
28087;DHT22;15392;48.912;8.380;2023-02-04T09:38:27;15.80;55.50
28087;DHT22;15392;48.912;8.380;2023-02-04T09:40:57;15.90;55.10
28087;DHT22;15392;48.912;8.380;2023-02-04T09:43:27;15.90;54.60
28087;DHT22;15392;48.912;8.380;2023-02-04T09:45:55;15.80;54.40
28087;DHT22;15392;48.912;8.380;2023-02-04T09:48:22;15.80;54.30
28087;DHT22;15392;48.912;8.380;2023-02-04T09:50:49;15.70;54.20
28087;DHT22;15392;48.912;8.380;2023-02-04T09:53:22;15.60;54.20
28087;DHT22;15392;48.912;8.380;2023-02-04T09:55:50;15.50;54.10
28087;DHT22;15392;48.912;8.380;2023-02-04T09:58:20;15.40;54.10
28087;DHT22;15392;48.912;8.380;2023-02-04T10:00:51;15.30;54.00
28087;DHT22;15392;48.912;8.380;2023-02-04T10:03:22;15.20;54.20
28087;DHT22;15392;48.912;8.380;2023-02-04T10:05:49;15.20;54.40
28087;DHT22;15392;48.912;8.380;2023-02-04T10:08:19;15.10;54.50
28087;DHT22;15392;48.912;8.380;2023-02-04T10:10:47;15.00;54.30
28087;DHT22;15392;48.912;8.380;2023-02-04T10:13:22;15.00;54.30
28087;DHT22;15392;48.912;8.380;2023-02-04T10:15:51;14.90;54.50
28087;DHT22;15392;48.912;8.380;2023-02-04T10:18:26;14.90;54.60
28087;DHT22;15392;48.912;8.380;2023-02-04T10:21:10;14.80;54.60
28087;DHT22;15392;48.912;8.380;2023-02-04T10:23:46;14.80;54.70
28087;DHT22;15392;48.912;8.380;2023-02-04T10:26:14;14.80;54.90
28087;DHT22;15392;48.912;8.380;2023-02-04T10:28:41;14.80;54.90
28087;DHT22;15392;48.912;8.380;2023-02-04T10:31:31;14.70;55.20
28087;DHT22;15392;48.912;8.380;2023-02-04T10:36:50;14.70;54.90
28087;DHT22;15392;48.912;8.380;2023-02-04T10:39:24;14.70;54.90
28087;DHT22;15392;48.912;8.380;2023-02-04T10:41:55;14.70;54.90
28087;DHT22;15392;48.912;8.380;2023-02-04T10:44:31;14.60;54.80
28087;DHT22;15392;48.912;8.380;2023-02-04T10:47:06;14.60;54.80
28087;DHT22;15392;48.912;8.380;2023-02-04T10:49:38;14.60;54.90
28087;DHT22;15392;48.912;8.380;2023-02-04T10:52:15;14.50;54.80
28087;DHT22;15392;48.912;8.380;2023-02-04T10:54:41;14.50;54.60
28087;DHT22;15392;48.912;8.380;2023-02-04T10:57:23;14.50;54.80
28087;DHT22;15392;48.912;8.380;2023-02-04T10:59:57;14.50;54.70
28087;DHT22;15392;48.912;8.380;2023-02-04T11:02:44;14.50;54.80
28087;DHT22;15392;48.912;8.380;2023-02-04T11:05:19;14.40;54.70
28087;DHT22;15392;48.912;8.380;2023-02-04T11:07:48;14.40;54.90
28087;DHT22;15392;48.912;8.380;2023-02-04T11:10:20;14.40;55.00
28087;DHT22;15392;48.912;8.380;2023-02-04T11:18:28;14.30;54.60
28087;DHT22;15392;48.912;8.380;2023-02-04T11:20:56;14.30;54.80
28087;DHT22;15392;48.912;8.380;2023-02-04T11:26:07;14.30;54.80
28087;DHT22;15392;48.912;8.380;2023-02-04T11:31:25;14.30;54.80
28087;DHT22;15392;48.912;8.380;2023-02-04T11:39:36;14.30;54.30
28087;DHT22;15392;48.912;8.380;2023-02-04T11:42:37;14.20;54.50
28087;DHT22;15392;48.912;8.380;2023-02-04T11:45:13;14.30;54.40
28087;DHT22;15392;48.912;8.380;2023-02-04T11:47:51;14.30;54.80
28087;DHT22;15392;48.912;8.380;2023-02-04T11:50:32;14.30;55.00
28087;DHT22;15392;48.912;8.380;2023-02-04T11:53:00;14.30;54.60
28087;DHT22;15392;48.912;8.380;2023-02-04T11:55:28;14.40;54.70
28087;DHT22;15392;48.912;8.380;2023-02-04T11:57:56;14.40;54.70
28087;DHT22;15392;48.912;8.380;2023-02-04T12:00:29;14.50;54.70
28087;DHT22;15392;48.912;8.380;2023-02-04T12:03:04;14.50;54.40
28087;DHT22;15392;48.912;8.380;2023-02-04T12:08:32;14.60;54.10
28087;DHT22;15392;48.912;8.380;2023-02-04T12:11:11;14.70;53.90
28087;DHT22;15392;48.912;8.380;2023-02-04T12:13:52;14.70;53.80
28087;DHT22;15392;48.912;8.380;2023-02-04T12:16:18;14.80;53.70
28087;DHT22;15392;48.912;8.380;2023-02-04T12:18:44;14.80;53.80
28087;DHT22;15392;48.912;8.380;2023-02-04T12:21:10;14.80;53.70
28087;DHT22;15392;48.912;8.380;2023-02-04T12:23:36;14.80;53.60
28087;DHT22;15392;48.912;8.380;2023-02-04T12:26:02;14.90;53.40
28087;DHT22;15392;48.912;8.380;2023-02-04T12:28:28;14.90;53.30
28087;DHT22;15392;48.912;8.380;2023-02-04T12:30:54;14.90;53.20
28087;DHT22;15392;48.912;8.380;2023-02-04T12:33:20;14.90;53.20
28087;DHT22;15392;48.912;8.380;2023-02-04T12:35:47;14.90;53.20
28087;DHT22;15392;48.912;8.380;2023-02-04T12:38:13;14.90;53.20
28087;DHT22;15392;48.912;8.380;2023-02-04T12:40:39;14.90;52.90
28087;DHT22;15392;48.912;8.380;2023-02-04T12:43:05;14.90;52.90
28087;DHT22;15392;48.912;8.380;2023-02-04T12:45:32;14.90;53.00
28087;DHT22;15392;48.912;8.380;2023-02-04T12:47:59;14.90;53.00
28087;DHT22;15392;48.912;8.380;2023-02-04T12:50:25;14.90;53.00
28087;DHT22;15392;48.912;8.380;2023-02-04T12:52:53;14.90;53.20
28087;DHT22;15392;48.912;8.380;2023-02-04T12:55:21;14.90;53.20
28087;DHT22;15392;48.912;8.380;2023-02-04T12:57:48;14.90;53.20
28087;DHT22;15392;48.912;8.380;2023-02-04T13:00:15;14.90;53.20
28087;DHT22;15392;48.912;8.380;2023-02-04T13:02:42;14.90;52.50
28087;DHT22;15392;48.912;8.380;2023-02-04T13:05:09;14.90;52.50
28087;DHT22;15392;48.912;8.380;2023-02-04T13:07:35;14.90;52.80
28087;DHT22;15392;48.912;8.380;2023-02-04T13:10:02;15.00;53.00
28087;DHT22;15392;48.912;8.380;2023-02-04T13:12:29;15.00;53.10
28087;DHT22;15392;48.912;8.380;2023-02-04T13:14:54;15.00;53.10
28087;DHT22;15392;48.912;8.380;2023-02-04T13:17:20;15.10;53.10
28087;DHT22;15392;48.912;8.380;2023-02-04T13:19:46;15.10;53.00
28087;DHT22;15392;48.912;8.380;2023-02-04T13:22:12;15.10;52.90
28087;DHT22;15392;48.912;8.380;2023-02-04T13:24:37;15.10;52.80
28087;DHT22;15392;48.912;8.380;2023-02-04T13:27:03;15.10;52.70
28087;DHT22;15392;48.912;8.380;2023-02-04T13:29:29;15.00;52.60
28087;DHT22;15392;48.912;8.380;2023-02-04T13:31:54;15.00;52.60
28087;DHT22;15392;48.912;8.380;2023-02-04T13:34:20;15.00;52.60
28087;DHT22;15392;48.912;8.380;2023-02-04T13:36:46;15.00;52.60
28087;DHT22;15392;48.912;8.380;2023-02-04T13:39:12;15.00;52.60
28087;DHT22;15392;48.912;8.380;2023-02-04T13:41:38;14.90;52.70
28087;DHT22;15392;48.912;8.380;2023-02-04T13:44:05;14.90;52.60
28087;DHT22;15392;48.912;8.380;2023-02-04T13:46:31;14.90;52.60
28087;DHT22;15392;48.912;8.380;2023-02-04T13:48:58;14.80;52.60
28087;DHT22;15392;48.912;8.380;2023-02-04T13:51:24;14.80;52.30
28087;DHT22;15392;48.912;8.380;2023-02-04T13:53:50;14.80;51.70
28087;DHT22;15392;48.912;8.380;2023-02-04T13:56:16;14.80;52.00
28087;DHT22;15392;48.912;8.380;2023-02-04T13:58:42;14.80;52.20
28087;DHT22;15392;48.912;8.380;2023-02-04T14:01:13;14.70;52.30
28087;DHT22;15392;48.912;8.380;2023-02-04T14:03:39;14.70;52.20
28087;DHT22;15392;48.912;8.380;2023-02-04T14:06:05;14.70;52.40
28087;DHT22;15392;48.912;8.380;2023-02-04T14:08:31;14.70;52.40
28087;DHT22;15392;48.912;8.380;2023-02-04T14:10:57;14.70;52.40
28087;DHT22;15392;48.912;8.380;2023-02-04T14:13:23;14.70;52.50
28087;DHT22;15392;48.912;8.380;2023-02-04T14:15:49;14.60;52.50
28087;DHT22;15392;48.912;8.380;2023-02-04T14:18:14;14.60;52.50
28087;DHT22;15392;48.912;8.380;2023-02-04T14:20:44;14.60;52.60
28087;DHT22;15392;48.912;8.380;2023-02-04T14:23:10;14.60;52.70
28087;DHT22;15392;48.912;8.380;2023-02-04T14:25:37;14.60;52.60
28087;DHT22;15392;48.912;8.380;2023-02-04T14:28:04;14.60;52.60
28087;DHT22;15392;48.912;8.380;2023-02-04T14:30:31;14.60;52.50
28087;DHT22;15392;48.912;8.380;2023-02-04T14:32:57;14.50;52.60
28087;DHT22;15392;48.912;8.380;2023-02-04T14:35:24;14.50;52.60
28087;DHT22;15392;48.912;8.380;2023-02-04T14:37:50;14.60;52.50
28087;DHT22;15392;48.912;8.380;2023-02-04T14:40:17;14.60;52.50
28087;DHT22;15392;48.912;8.380;2023-02-04T14:42:44;14.50;52.40
28087;DHT22;15392;48.912;8.380;2023-02-04T14:45:11;14.60;52.40
28087;DHT22;15392;48.912;8.380;2023-02-04T14:47:38;14.50;52.40
28087;DHT22;15392;48.912;8.380;2023-02-04T14:50:15;14.50;52.40
28087;DHT22;15392;48.912;8.380;2023-02-04T14:52:41;14.60;52.20
28087;DHT22;15392;48.912;8.380;2023-02-04T14:55:08;14.60;52.10
28087;DHT22;15392;48.912;8.380;2023-02-04T14:57:37;14.50;51.90
28087;DHT22;15392;48.912;8.380;2023-02-04T15:00:04;14.50;51.80
28087;DHT22;15392;48.912;8.380;2023-02-04T15:02:31;14.50;51.80
28087;DHT22;15392;48.912;8.380;2023-02-04T15:04:56;14.40;51.80
28087;DHT22;15392;48.912;8.380;2023-02-04T15:07:22;14.40;51.80
28087;DHT22;15392;48.912;8.380;2023-02-04T15:09:48;14.40;51.70
28087;DHT22;15392;48.912;8.380;2023-02-04T15:12:14;14.40;51.70
28087;DHT22;15392;48.912;8.380;2023-02-04T15:14:40;14.40;51.70
28087;DHT22;15392;48.912;8.380;2023-02-04T15:17:05;14.30;51.70
28087;DHT22;15392;48.912;8.380;2023-02-04T15:19:31;14.30;51.70
28087;DHT22;15392;48.912;8.380;2023-02-04T15:21:57;14.30;51.80
28087;DHT22;15392;48.912;8.380;2023-02-04T15:24:23;14.30;51.90
28087;DHT22;15392;48.912;8.380;2023-02-04T15:26:51;14.20;51.80
28087;DHT22;15392;48.912;8.380;2023-02-04T15:29:16;14.20;52.00
28087;DHT22;15392;48.912;8.380;2023-02-04T15:31:42;14.20;52.00
28087;DHT22;15392;48.912;8.380;2023-02-04T15:34:08;14.10;52.10
28087;DHT22;15392;48.912;8.380;2023-02-04T15:36:33;14.10;52.10
28087;DHT22;15392;48.912;8.380;2023-02-04T15:38:59;14.10;52.00
28087;DHT22;15392;48.912;8.380;2023-02-04T15:41:25;14.00;52.00
28087;DHT22;15392;48.912;8.380;2023-02-04T15:43:51;14.00;52.10
28087;DHT22;15392;48.912;8.380;2023-02-04T15:46:16;13.90;52.20
28087;DHT22;15392;48.912;8.380;2023-02-04T15:48:42;13.90;52.40
28087;DHT22;15392;48.912;8.380;2023-02-04T15:51:08;13.90;52.50
28087;DHT22;15392;48.912;8.380;2023-02-04T15:53:34;13.80;52.60